Terminal Aerodrome Forecast
Issued by NWS

Home | Current Version | Previous Version | Text Only | Print | Product List | Glossary On
Versions: 1 2 3 4 5 6 7 8 9 10 11 12 13 14 15 16 17 18 19 20 21 22 23 24
000
FTUS46 KMFR 302300
TAFOTH
TAF
KOTH 302331Z 0100/0124 34012G18KT P6SM SCT020 SCT080
     FM010600 06006KT P6SM FEW012
     FM011100 09003KT 2SM BR SCT002
     FM011500 03006KT P6SM SKC
     FM011900 36012G20KT P6SM SKC=

USA.gov is the U.S. government's official web portal to all federal, state and local government web resources and services.